Terminal Aerodrome Forecast
Issued by NWS

Home | Current Version | Previous Version | Text Only | Print | Product List | Glossary On
Versions: 1 2 3 4 5 6 7 8 9 10 11 12 13 14
000
FTUS43 KGRB 061723
TAFATW
TAF
KATW 061723Z 0618/0718 24008KT P6SM FEW110 SCT250
     FM070200 21007KT P6SM SCT120 BKN250 WS015/26035KT PROB30
      0705/0708 -TSRA BKN050CB BKN120
     FM070800 35014G22KT P6SM VCSH BKN050
     FM071100 35011KT P6SM SCT050 BKN100
     FM071400 35012G18KT P6SM SCT100 SCT250=

USA.gov is the U.S. government's official web portal to all federal, state and local government web resources and services.